Flight Track Log - Related Links

Times and Time Zones

All times are in EDT time to prevent confusion due to time zone crossing. See the SWA1802 flight status page for this flight to view local times or setup timezone preferences in your user account.

Time Position Orientation Groundspeed Altitude Reporting Facility
EDT Latitude Longitude Course Direction KTS MPH feet Rate Location/Type
Sat 02:34:23 PM 34.1833 -118.3500 248° West 153 176 1,700  Level Southern California TRACON
Sat 02:35:23 PM 34.1667 -118.4000 248° West 202 232 3,800 2,328 Climbing Southern California TRACON
Sat 02:36:37 PM 34.1778 -118.4717 281° West 222 255 6,900 3,066 Climbing Los Angeles Center
Sat 02:37:40 PM 34.2428 -118.5039 338° Northwest 252 290 10,800 3,840 Climbing Los Angeles Center
Sat 02:38:42 PM 34.3244 -118.5581 331° Northwest 276 318 14,900 2,129 Climbing Los Angeles Center
Sat 02:39:44 PM 34.3975 -118.6025 333° Northwest 291 335 15,200 1,306 Climbing Los Angeles Center
Sat 02:40:46 PM 34.4794 -118.6542 333° Northwest 343 395 17,600 2,855 Climbing Los Angeles Center
Sat 02:41:48 PM 34.5653 -118.7092 332° Northwest 351 404 21,100 3,097 Climbing Los Angeles Center
Sat 02:42:50 PM 34.6558 -118.7686 332° Northwest 369 425 24,000 2,855 Climbing Los Angeles Center
Sat 02:43:52 PM 34.7703 -118.8414 332° Northwest 383 441 27,000 2,565 Climbing Los Angeles Center
Sat 02:44:54 PM 34.8606 -118.9164 326° Northwest 394 453 29,300 2,256 Climbing Los Angeles Center
Sat 02:45:57 PM 34.9353 -118.9917 320° Northwest 395 455 31,700 2,496 Climbing Los Angeles Center
Sat 02:46:59 PM 35.0367 -119.0903 321° Northwest 390 449 34,500 2,274 Climbing Los Angeles Center
Sat 02:48:01 PM 35.1197 -119.1697 322° Northwest 387 445 36,400 1,694 Climbing Los Angeles Center
Sat 02:49:03 PM 35.2033 -119.2517 321° Northwest 387 445 38,000 774 Climbing Los Angeles Center
Sat 02:50:05 PM 35.2858 -119.3336 321° Northwest 386 444 38,000  Level Los Angeles Center
Sat 02:51:07 PM 35.3692 -119.4164 321° Northwest 386 444 38,000  Level Los Angeles Center
Sat 02:52:09 PM 35.4675 -119.5122 322° Northwest 385 443 38,000  Level Los Angeles Center
Sat 02:53:11 PM 35.5478 -119.5936 320° Northwest 380 437 38,000  Level Los Angeles Center
Sat 02:54:14 PM 35.6292 -119.6744 321° Northwest 380 437 38,000 -186 Level Los Angeles Center
Sat 02:54:48 PM 35.6775 -119.7225 321° Northwest 380 437 37,700 -750 Descending Oakland Center
Sat 02:55:50 PM 35.7572 -119.8019 321° Northwest 377 434 36,800 -878 Descending Oakland Center
Sat 02:56:51 PM 35.8356 -119.8822 320° Northwest 374 430 35,900 -934 Descending Oakland Center
Sat 02:57:52 PM 35.9142 -119.9614 321° Northwest 372 428 34,900 -1,122 Descending Oakland Center
Sat 02:58:54 PM 36.0067 -120.0539 321° Northwest 362 417 33,600 -1,073 Descending Oakland Center
Sat 02:59:55 PM 36.0819 -120.1308 320° Northwest 359 413 32,700 -927 Descending Oakland Center
Sat 03:00:57 PM 36.1550 -120.2061 320° Northwest 349 402 31,700 -1,024 Descending Oakland Center
Sat 03:01:58 PM 36.2278 -120.2794 321° Northwest 344 396 30,600 -1,024 Descending Oakland Center
Sat 03:03:00 PM 36.2994 -120.3525 321° Northwest 341 392 29,600 -927 Descending Oakland Center
Sat 03:04:01 PM 36.3703 -120.4244 321° Northwest 334 384 28,700 -927 Descending Oakland Center
Sat 03:05:03 PM 36.4400 -120.4978 320° Northwest 332 382 27,700 -829 Descending Oakland Center
Sat 03:06:04 PM 36.5078 -120.5683 320° Northwest 326 375 27,000 -341 Descending Oakland Center
Sat 03:07:06 PM 36.5947 -120.6536 322° Northwest 332 382 27,000  Level Oakland Center
Sat 03:08:07 PM 36.6669 -120.7303 320° Northwest 336 387 27,000 -49 Level Oakland Center
Sat 03:09:08 PM 36.7381 -120.8039 320° Northwest 337 388 26,900 -732 Descending Oakland Center
Sat 03:10:10 PM 36.8000 -120.8833 314° West 323 372 25,500 -1,561 Descending Oakland Center
Sat 03:11:11 PM 36.8619 -120.9489 320° Northwest 312 359 23,700 -1,902 Descending Oakland Center
Sat 03:12:13 PM 36.9297 -121.0247 318° Northwest 321 369 21,600 -2,244 Descending Oakland Center
Sat 03:13:14 PM 37.0078 -121.1169 317° Northwest 322 371 19,100 -1,951 Descending Oakland Center
Sat 03:14:16 PM 37.0617 -121.1775 318° Northwest 303 349 17,600 -1,805 Descending Oakland Center
Sat 03:15:17 PM 37.1275 -121.2558 317° Northwest 291 335 15,400 -2,000 Descending Oakland Center
Sat 03:16:19 PM 37.1853 -121.3228 317° Northwest 287 330 13,500 -1,707 Descending Oakland Center
Sat 03:17:20 PM 37.2394 -121.3850 318° Northwest 270 311 11,900 -1,415 Descending Oakland Center
Sat 03:18:22 PM 37.2933 -121.4453 318° Northwest 261 300 10,600 -1,122 Descending Oakland Center
Sat 03:19:23 PM 37.3447 -121.5069 316° Northwest 258 297 9,600 -1,024 Descending Oakland Center
Sat 03:20:25 PM 37.4000 -121.5708 317° Northwest 253 291 8,500 -1,024 Descending Oakland Center
Sat 03:21:26 PM 37.4531 -121.6317 318° Northwest 258 297 7,500 -927 Descending Oakland Center
Sat 03:22:28 PM 37.4922 -121.7056 304° West 255 293 6,600 -732 Descending Oakland Center
Sat 03:23:29 PM 37.5078 -121.7906 283° West 255 293 6,000 -780 Descending Oakland Center
Sat 03:24:31 PM 37.5250 -121.8825 283° West 231 266 5,000 -732 Descending Oakland Center
Sat 03:25:32 PM 37.5400 -121.9542 285° West 219 252 4,500 -344 Descending Oakland Center
Sat 03:26:33 PM 37.5631 -122.0100 298° West 194 223 4,300 -537 Descending Oakland Center
Sat 03:27:35 PM 37.5967 -122.0600 310° West 189 217 3,400 -923 Descending Oakland Center
Sat 03:28:43 PM 37.6333 -122.1167 309° West 174 200 2,300 -938 Descending Northern Cal TRACON
Sat 03:29:43 PM 37.6667 -122.1500 322° Northwest 138 159 1,400 -800 Descending Northern Cal TRACON
Sat 03:30:43 PM 37.6833 -122.1833 302° West 125 144 700 -700 Descending Northern Cal TRACON
Sat 03:33:00 PM 37.7167 -122.2167 270° West  Level FlightAware Approximate

Login

Don't have an account? Register now (free) for customized features, flight alerts, and more!